Main page
METAR-TAF:

METAR-TAF

Airports :

Mytilene International Airport

Mytilene-Lesbos, Greece

latitude: 39-04N, longitude: 026-36E, elevation: 3 m

Current weather observation

The report was made 31 minutes ago, at 02:50 UTC
Wind 7 kt from the West/Northwest
Temperature 18°C
Humidity 83%
Pressure 1019 hPa
Visibility 10 km or more
Few clouds at a height of 2500 ft

METAR: LGMT 160250Z 30007KT 9999 FEW025 18/15 Q1019

Time: 06:21 (03:21 UTC)

Forecast

The report was made 1 hour and 21 minutes ago, at 02:00 UTC
Forecast valid from 16 at 03 UTC to 16 at 12 UTC
Wind 8 kt from the Northwest
Visibility 10 km or more
Few clouds at a height of 2500 ft

TAF: LGMT 160200Z 1603/1612 32008KT 9999 FEW025

Weather observations and forecasts of more than 4000 airports (METAR and TAF reports).

The available stations are represented by yellow and red dots on the map.

Hover mouse over dot to see the name of the station.

Then click to see weather observations and forecasts.

To change the map : click on the green buttons with a black cross to zoom in, on the green button with a dash to zoom out, or on the green arrows for adjacent maps.


METAR-TAF: